Time;durP1;ratioP1;P1;durP2;ratioP2;P2;SDS_P1;SDS_P2;PMS_P1;PMS_P2;Temp;Humidity;BMP_temperature;BMP_pressure;BME280_temperature;BME280_humidity;BME280_pressure;Samples;Min_cycle;Max_cycle;Signal;HPM_P1;HPM_P2
2023/06/01 00:01:56;;;;;;;19.17;8.43;;;;;;;;;;5092098;28;20034;-68
2023/06/01 00:04:22;;;;;;;18.93;8.30;;;;;;;;;;5074882;28;20048;-67
2023/06/01 00:06:47;;;;;;;17.80;8.07;;;;;;;;;;5055399;28;20021;-68
2023/06/01 00:09:12;;;;;;;13.87;7.37;;;;;;;;;;5055408;28;20021;-68
2023/06/01 00:11:38;;;;;;;15.67;6.57;;;;;;;;;;5087077;28;20020;-66
2023/06/01 00:14:03;;;;;;;18.20;7.80;;;;;;;;;;5087723;28;20055;-68
2023/06/01 00:16:30;;;;;;;18.40;6.80;;;;;;;;;;5055690;28;20544;-67
2023/06/01 00:18:56;;;;;;;14.83;6.70;;;;;;;;;;5055762;28;20024;-67
2023/06/01 00:21:22;;;;;;;17.73;6.77;;;;;;;;;;5090187;28;20016;-67
2023/06/01 00:23:47;;;;;;;16.70;6.70;;;;;;;;;;5093467;28;20023;-68
2023/06/01 00:26:13;;;;;;;17.00;6.37;;;;;;;;;;5092820;28;20012;-68
2023/06/01 00:28:39;;;;;;;18.50;6.20;;;;;;;;;;5089559;28;20382;-67
2023/06/01 00:31:04;;;;;;;14.33;6.23;;;;;;;;;;5084393;28;20029;-68
2023/06/01 00:33:29;;;;;;;19.87;6.57;;;;;;;;;;5055155;28;20479;-67
2023/06/01 00:35:55;;;;;;;17.83;7.00;;;;;;;;;;5057853;28;20166;-67
2023/06/01 00:38:20;;;;;;;21.87;7.40;;;;;;;;;;5054635;28;20021;-68
2023/06/01 00:40:49;;;;;;;19.23;7.30;;;;;;;;;;5077217;28;20151;-68
2023/06/01 00:43:15;;;;;;;17.07;6.73;;;;;;;;;;5054856;28;20021;-68
2023/06/01 00:45:40;;;;;;;21.83;6.80;;;;;;;;;;5067890;28;20017;-68
2023/06/01 00:48:06;;;;;;;17.40;7.00;;;;;;;;;;5056288;28;20016;-68
2023/06/01 00:50:31;;;;;;;26.83;8.33;;;;;;;;;;5054949;28;20025;-68
2023/06/01 00:52:58;;;;;;;21.03;6.67;;;;;;;;;;5067142;28;20023;-68
2023/06/01 00:55:23;;;;;;;16.80;6.97;;;;;;;;;;5083727;28;20017;-68
2023/06/01 00:57:49;;;;;;;20.80;7.63;;;;;;;;;;5071769;28;20032;-68
2023/06/01 01:03:18;;;;;;;14.27;6.67;;;;;;;;;;5067928;28;20043;-62
2023/06/01 01:05:43;;;;;;;18.33;7.10;;;;;;;;;;5072301;28;20025;-62
2023/06/01 01:08:43;;;;;;;15.40;6.53;;;;;;;;;;5075976;28;20020;-63
2023/06/01 01:11:21;;;;;;;15.47;7.50;;;;;;;;;;4973753;28;20050;-62
2023/06/01 01:14:07;;;;;;;18.57;6.90;;;;;;;;;;4971869;28;20041;-62
2023/06/01 01:16:40;;;;;;;16.13;7.27;;;;;;;;;;4968884;28;20528;-62
2023/06/01 01:19:17;;;;;;;13.47;6.43;;;;;;;;;;4972365;28;20030;-63
2023/06/01 01:21:49;;;;;;;17.03;6.53;;;;;;;;;;4972710;28;20373;-62
2023/06/01 01:24:23;;;;;;;17.77;6.47;;;;;;;;;;4972465;28;20033;-62
2023/06/01 01:27:03;;;;;;;17.83;6.80;;;;;;;;;;4972412;28;20126;-62
2023/06/01 01:29:30;;;;;;;16.93;6.77;;;;;;;;;;4972448;28;20015;-62
2023/06/01 01:31:56;;;;;;;20.87;7.20;;;;;;;;;;4990537;28;20038;-64
2023/06/01 01:34:22;;;;;;;23.37;8.67;;;;;;;;;;4989179;28;20511;-63
2023/06/01 01:36:47;;;;;;;24.10;9.33;;;;;;;;;;4990383;28;20020;-62
2023/06/01 01:39:13;;;;;;;21.93;10.17;;;;;;;;;;4974137;28;20034;-62
2023/06/01 01:41:38;;;;;;;17.93;9.10;;;;;;;;;;4974371;28;20027;-63
2023/06/01 01:44:04;;;;;;;25.00;10.20;;;;;;;;;;4986767;28;20484;-62
2023/06/01 01:46:32;;;;;;;21.73;9.43;;;;;;;;;;5083849;28;20095;-62
2023/06/01 01:49:17;;;;;;;19.20;9.57;;;;;;;;;;5091420;28;20029;-62
2023/06/01 01:52:00;;;;;;;21.47;9.50;;;;;;;;;;5075852;28;20027;-62
2023/06/01 01:54:27;;;;;;;21.60;11.67;;;;;;;;;;5053723;28;20467;-62
2023/06/01 01:56:56;;;;;;;25.57;12.97;;;;;;;;;;5077191;28;20050;-63
2023/06/01 01:59:22;;;;;;;25.80;12.73;;;;;;;;;;5091539;28;20377;-62
2023/06/01 02:01:48;;;;;;;25.13;10.70;;;;;;;;;;5091197;28;20424;-62
2023/06/01 02:04:13;;;;;;;21.30;7.47;;;;;;;;;;5079521;28;20051;-62
2023/06/01 02:06:38;;;;;;;16.90;7.70;;;;;;;;;;5053173;28;20033;-62
2023/06/01 02:09:07;;;;;;;17.97;7.80;;;;;;;;;;5075188;28;20173;-62
2023/06/01 02:11:33;;;;;;;20.80;8.60;;;;;;;;;;5079545;28;20036;-62
2023/06/01 02:13:58;;;;;;;19.00;8.33;;;;;;;;;;5070304;28;20032;-62
2023/06/01 02:16:23;;;;;;;20.17;8.23;;;;;;;;;;5067132;28;20055;-62
2023/06/01 02:18:49;;;;;;;23.03;8.90;;;;;;;;;;5090998;28;20020;-61
2023/06/01 02:21:14;;;;;;;16.23;7.30;;;;;;;;;;5082271;28;20017;-62
2023/06/01 02:23:41;;;;;;;15.90;7.30;;;;;;;;;;5052971;28;20475;-62
2023/06/01 02:26:06;;;;;;;12.70;7.27;;;;;;;;;;5053063;28;20020;-62
2023/06/01 02:28:32;;;;;;;21.07;8.73;;;;;;;;;;5069248;28;20024;-62
2023/06/01 02:30:57;;;;;;;20.53;8.00;;;;;;;;;;5081004;28;20389;-63
2023/06/01 02:33:24;;;;;;;18.73;8.37;;;;;;;;;;5090575;28;20473;-63
2023/06/01 02:35:50;;;;;;;22.47;8.77;;;;;;;;;;5071741;28;20028;-62
2023/06/01 02:38:15;;;;;;;18.73;8.67;;;;;;;;;;5084663;28;20012;-63
2023/06/01 02:40:40;;;;;;;24.07;9.90;;;;;;;;;;5091020;28;20386;-62
2023/06/01 02:43:06;;;;;;;21.33;9.50;;;;;;;;;;5081913;28;20024;-62
2023/06/01 02:45:31;;;;;;;24.67;9.90;;;;;;;;;;5054959;28;20024;-62
2023/06/01 02:47:56;;;;;;;15.50;8.67;;;;;;;;;;5061868;28;20024;-62
2023/06/01 02:50:22;;;;;;;19.93;8.63;;;;;;;;;;5056552;28;20553;-62
2023/06/01 02:52:47;;;;;;;20.33;9.00;;;;;;;;;;5090371;28;20024;-62
2023/06/01 02:55:12;;;;;;;20.43;9.30;;;;;;;;;;5082417;28;20028;-63
2023/06/01 02:57:37;;;;;;;20.50;8.70;;;;;;;;;;5090185;28;20444;-62
2023/06/01 03:00:04;;;;;;;24.53;10.07;;;;;;;;;;5084343;28;20021;-67
2023/06/01 03:02:29;;;;;;;25.40;12.77;;;;;;;;;;5074655;28;20044;-67
2023/06/01 03:04:54;;;;;;;25.33;11.77;;;;;;;;;;5084312;28;20425;-67
2023/06/01 03:07:19;;;;;;;26.73;11.97;;;;;;;;;;5095298;28;20053;-67
2023/06/01 03:09:45;;;;;;;22.70;10.43;;;;;;;;;;5094414;28;20113;-67
2023/06/01 03:12:10;;;;;;;21.20;9.40;;;;;;;;;;5100356;28;20030;-66
2023/06/01 03:14:36;;;;;;;24.27;10.43;;;;;;;;;;5102499;28;20041;-67
2023/06/01 03:17:01;;;;;;;28.60;11.57;;;;;;;;;;5083312;28;20020;-67
2023/06/01 03:19:26;;;;;;;24.30;10.90;;;;;;;;;;5082538;28;20024;-67
2023/06/01 03:21:52;;;;;;;22.10;10.30;;;;;;;;;;5071475;28;20013;-67
2023/06/01 03:24:17;;;;;;;27.63;12.70;;;;;;;;;;5080802;28;20488;-67
2023/06/01 03:26:42;;;;;;;34.47;16.27;;;;;;;;;;5083068;28;20411;-67
2023/06/01 03:29:08;;;;;;;33.57;17.37;;;;;;;;;;5089835;28;20031;-67
2023/06/01 03:31:34;;;;;;;40.47;16.97;;;;;;;;;;5086640;28;20020;-68
2023/06/01 03:34:00;;;;;;;31.17;15.83;;;;;;;;;;5083635;28;20028;-68
2023/06/01 03:36:26;;;;;;;27.53;13.63;;;;;;;;;;5083352;28;20013;-67
2023/06/01 03:38:51;;;;;;;26.60;12.97;;;;;;;;;;5058845;28;20016;-68
2023/06/01 03:41:16;;;;;;;25.07;11.73;;;;;;;;;;5078861;28;20017;-67
2023/06/01 03:43:41;;;;;;;31.77;11.50;;;;;;;;;;5072054;28;20376;-67
2023/06/01 03:46:07;;;;;;;22.17;10.67;;;;;;;;;;5071203;28;20024;-67
2023/06/01 03:48:32;;;;;;;21.23;9.90;;;;;;;;;;5058525;28;20017;-67
2023/06/01 03:50:57;;;;;;;23.80;10.07;;;;;;;;;;5070232;28;20029;-68
2023/06/01 03:53:25;;;;;;;28.97;12.43;;;;;;;;;;5067846;28;20052;-68
2023/06/01 03:55:52;;;;;;;26.63;12.57;;;;;;;;;;5083252;28;20016;-67
2023/06/01 03:58:19;;;;;;;28.17;12.13;;;;;;;;;;5071400;28;20341;-67
2023/06/01 04:00:46;;;;;;;27.40;12.10;;;;;;;;;;5067537;28;20094;-68
2023/06/01 04:03:12;;;;;;;24.47;12.03;;;;;;;;;;5083934;28;20426;-68
2023/06/01 04:05:37;;;;;;;25.37;11.67;;;;;;;;;;5092051;28;20083;-68
2023/06/01 04:08:02;;;;;;;26.67;13.03;;;;;;;;;;5085008;28;20013;-67
2023/06/01 04:10:28;;;;;;;26.33;13.03;;;;;;;;;;5069741;28;20056;-67
2023/06/01 04:12:53;;;;;;;23.93;12.63;;;;;;;;;;5074450;28;20020;-68
2023/06/01 04:15:19;;;;;;;26.00;13.17;;;;;;;;;;5084238;28;20387;-67
2023/06/01 04:17:45;;;;;;;29.67;13.33;;;;;;;;;;5055542;28;20382;-67
2023/06/01 04:20:11;;;;;;;29.90;12.40;;;;;;;;;;5074312;28;20019;-68
2023/06/01 04:22:40;;;;;;;23.43;9.80;;;;;;;;;;5092615;28;20019;-67
2023/06/01 04:25:07;;;;;;;25.10;9.63;;;;;;;;;;5086073;28;20502;-68
2023/06/01 04:27:36;;;;;;;21.43;8.63;;;;;;;;;;5084107;28;20016;-68
2023/06/01 04:30:01;;;;;;;18.70;8.17;;;;;;;;;;5063165;28;20031;-68
2023/06/01 04:32:27;;;;;;;23.90;8.87;;;;;;;;;;5080631;28;20134;-67
2023/06/01 04:34:52;;;;;;;20.93;8.67;;;;;;;;;;5064468;28;20051;-68
2023/06/01 04:37:24;;;;;;;20.93;8.13;;;;;;;;;;5086676;28;20020;-67
2023/06/01 04:39:51;;;;;;;17.75;8.25;;;;;;;;;;5078266;28;20418;-67
2023/06/01 04:42:16;;;;;;;20.20;9.33;;;;;;;;;;5080631;28;20043;-67
2023/06/01 04:44:46;;;;;;;17.47;8.10;;;;;;;;;;5079047;28;20421;-68
2023/06/01 04:47:12;;;;;;;16.43;6.93;;;;;;;;;;5082191;28;20023;-68
2023/06/01 04:49:41;;;;;;;17.73;7.30;;;;;;;;;;5092477;28;20404;-67
2023/06/01 04:52:06;;;;;;;16.73;6.60;;;;;;;;;;5081301;28;20028;-68
2023/06/01 04:54:32;;;;;;;18.93;7.47;;;;;;;;;;5089219;28;20020;-68
2023/06/01 04:56:57;;;;;;;15.13;7.20;;;;;;;;;;5069883;28;20044;-67
2023/06/01 04:59:23;;;;;;;18.67;6.90;;;;;;;;;;5055442;28;20021;-67
2023/06/01 05:01:48;;;;;;;16.20;6.37;;;;;;;;;;5056611;28;20024;-67
2023/06/01 05:04:13;;;;;;;13.83;5.47;;;;;;;;;;5065866;28;20056;-68
2023/06/01 05:06:40;;;;;;;14.03;5.20;;;;;;;;;;5053619;28;20172;-67
2023/06/01 05:09:05;;;;;;;18.83;5.90;;;;;;;;;;5061104;28;20473;-67
2023/06/01 05:11:30;;;;;;;17.87;8.00;;;;;;;;;;5077892;28;20039;-67
2023/06/01 05:14:01;;;;;;;20.60;9.17;;;;;;;;;;5091990;28;20028;-68
2023/06/01 05:16:26;;;;;;;20.77;8.90;;;;;;;;;;5091582;28;20441;-68
2023/06/01 05:18:51;;;;;;;18.83;8.80;;;;;;;;;;5092207;28;20012;-67
2023/06/01 05:21:17;;;;;;;16.43;7.37;;;;;;;;;;5078618;28;20710;-67
2023/06/01 05:23:42;;;;;;;17.20;5.90;;;;;;;;;;5055781;28;20027;-67
2023/06/01 05:26:07;;;;;;;12.63;6.27;;;;;;;;;;5054008;28;20079;-68
2023/06/01 05:28:33;;;;;;;17.30;6.83;;;;;;;;;;5054249;28;20032;-67
2023/06/01 05:30:59;;;;;;;17.07;7.33;;;;;;;;;;5053934;28;20048;-67
2023/06/01 05:33:25;;;;;;;13.63;6.13;;;;;;;;;;5072046;28;21887;-68
2023/06/01 05:35:50;;;;;;;14.33;5.87;;;;;;;;;;5091486;28;20020;-67
2023/06/01 05:38:19;;;;;;;13.80;5.67;;;;;;;;;;5065144;28;20035;-71
2023/06/01 05:40:45;;;;;;;15.63;5.67;;;;;;;;;;5058458;28;20469;-70
2023/06/01 05:43:10;;;;;;;14.70;5.20;;;;;;;;;;5075495;28;20016;-69
2023/06/01 05:45:36;;;;;;;12.87;4.77;;;;;;;;;;5060638;28;20083;-70
2023/06/01 05:48:01;;;;;;;10.53;4.20;;;;;;;;;;5073553;28;20028;-69
2023/06/01 05:50:27;;;;;;;8.97;3.80;;;;;;;;;;5085319;28;20031;-69
2023/06/01 05:52:52;;;;;;;12.73;3.90;;;;;;;;;;5091021;28;20463;-69
2023/06/01 05:55:17;;;;;;;9.03;3.67;;;;;;;;;;5067709;28;20024;-69
2023/06/01 05:57:43;;;;;;;9.27;4.40;;;;;;;;;;5084008;28;20045;-69
2023/06/01 06:00:13;;;;;;;9.67;3.97;;;;;;;;;;5073988;28;20028;-69
2023/06/01 06:02:39;;;;;;;8.63;4.07;;;;;;;;;;5072914;28;20099;-69
2023/06/01 06:05:04;;;;;;;9.17;4.10;;;;;;;;;;5072750;28;20179;-69
2023/06/01 06:07:30;;;;;;;11.17;4.40;;;;;;;;;;5084176;28;20029;-69
2023/06/01 06:09:55;;;;;;;12.50;4.50;;;;;;;;;;5091072;28;20422;-69
2023/06/01 06:12:20;;;;;;;11.40;4.57;;;;;;;;;;5076499;28;20021;-69
2023/06/01 06:14:46;;;;;;;10.67;4.00;;;;;;;;;;5056153;28;20031;-69
2023/06/01 06:17:11;;;;;;;11.43;4.40;;;;;;;;;;5053599;28;20024;-70
2023/06/01 06:19:36;;;;;;;8.70;4.20;;;;;;;;;;5055260;28;20021;-70
2023/06/01 06:22:02;;;;;;;11.27;5.70;;;;;;;;;;5088940;28;20016;-69
2023/06/01 06:24:27;;;;;;;15.47;5.50;;;;;;;;;;5091192;28;20020;-69
2023/06/01 06:26:52;;;;;;;10.63;5.00;;;;;;;;;;5090853;28;20051;-69
2023/06/01 06:29:17;;;;;;;11.10;5.00;;;;;;;;;;5063663;28;20017;-70
2023/06/01 06:31:44;;;;;;;11.57;4.93;;;;;;;;;;5053367;28;20558;-69
2023/06/01 06:34:11;;;;;;;11.37;5.00;;;;;;;;;;5053495;28;20403;-69
2023/06/01 06:36:36;;;;;;;7.47;4.00;;;;;;;;;;5059441;28;20455;-69
2023/06/01 06:39:01;;;;;;;13.17;5.20;;;;;;;;;;5090493;28;20031;-69
2023/06/01 06:41:27;;;;;;;8.17;4.30;;;;;;;;;;5082944;28;20081;-71
2023/06/01 06:43:52;;;;;;;11.00;4.60;;;;;;;;;;5061410;28;20028;-69
2023/06/01 06:46:18;;;;;;;11.70;4.30;;;;;;;;;;5055239;28;20087;-69
2023/06/01 06:48:43;;;;;;;9.67;4.33;;;;;;;;;;5052900;28;20025;-69
2023/06/01 06:51:08;;;;;;;7.53;4.00;;;;;;;;;;5070268;28;20020;-69
2023/06/01 06:53:34;;;;;;;9.00;3.70;;;;;;;;;;5090580;28;20058;-69
2023/06/01 06:55:59;;;;;;;8.03;3.50;;;;;;;;;;5090823;28;20076;-69
2023/06/01 06:58:24;;;;;;;10.10;4.00;;;;;;;;;;5085693;28;20016;-70
2023/06/01 07:00:50;;;;;;;11.07;4.53;;;;;;;;;;5090676;28;20028;-69
2023/06/01 07:03:16;;;;;;;9.07;4.20;;;;;;;;;;5063862;28;20463;-71
2023/06/01 07:05:42;;;;;;;8.37;3.60;;;;;;;;;;5065673;28;20678;-70
2023/06/01 07:08:07;;;;;;;8.10;3.67;;;;;;;;;;5090492;28;20073;-69
2023/06/01 07:10:32;;;;;;;7.43;3.37;;;;;;;;;;5084312;28;20470;-69
2023/06/01 07:12:57;;;;;;;7.53;3.42;;;;;;;;;;5090850;28;20091;-69
2023/06/01 07:15:23;;;;;;;7.80;3.22;;;;;;;;;;5090232;28;20421;-70
2023/06/01 07:17:49;;;;;;;8.93;3.20;;;;;;;;;;5089999;28;20012;-70
2023/06/01 07:20:14;;;;;;;6.28;3.17;;;;;;;;;;5080368;28;20035;-69
2023/06/01 07:22:39;;;;;;;11.40;3.20;;;;;;;;;;5089287;28;20031;-69
2023/06/01 07:25:05;;;;;;;6.67;2.63;;;;;;;;;;5093452;28;20031;-70
2023/06/01 07:27:31;;;;;;;6.25;2.53;;;;;;;;;;5085910;28;20024;-69
2023/06/01 07:29:56;;;;;;;5.32;2.63;;;;;;;;;;5060852;28;20467;-68
2023/06/01 07:32:22;;;;;;;4.72;2.40;;;;;;;;;;5056536;28;20029;-69
2023/06/01 07:34:47;;;;;;;4.38;2.20;;;;;;;;;;5056004;28;20028;-69
2023/06/01 07:37:12;;;;;;;7.32;2.60;;;;;;;;;;5075765;28;20087;-68
2023/06/01 07:39:38;;;;;;;6.72;2.45;;;;;;;;;;5093532;28;20023;-69
2023/06/01 07:42:03;;;;;;;7.05;2.63;;;;;;;;;;5085750;28;20099;-69
2023/06/01 07:44:28;;;;;;;5.35;2.60;;;;;;;;;;5091157;28;20028;-69
2023/06/01 07:46:54;;;;;;;4.93;2.38;;;;;;;;;;5060987;28;20024;-69
2023/06/01 07:49:19;;;;;;;5.90;2.42;;;;;;;;;;5056303;28;20403;-69
2023/06/01 07:51:44;;;;;;;7.97;2.50;;;;;;;;;;5055738;28;20028;-69
2023/06/01 07:54:10;;;;;;;4.25;1.77;;;;;;;;;;5059387;28;20036;-69
2023/06/01 07:56:35;;;;;;;6.13;1.85;;;;;;;;;;5058607;28;20024;-69
2023/06/01 07:59:01;;;;;;;3.38;1.90;;;;;;;;;;5094064;28;20019;-69
2023/06/01 08:01:26;;;;;;;5.03;1.92;;;;;;;;;;5092988;28;20488;-69
2023/06/01 08:03:52;;;;;;;6.75;2.00;;;;;;;;;;5093144;28;20044;-69
2023/06/01 08:06:17;;;;;;;6.13;2.40;;;;;;;;;;5077897;28;20025;-69
2023/06/01 08:08:43;;;;;;;4.97;2.10;;;;;;;;;;5055860;28;20025;-70
2023/06/01 08:11:09;;;;;;;5.13;2.05;;;;;;;;;;5075909;28;20048;-69
2023/06/01 08:13:36;;;;;;;3.00;1.50;;;;;;;;;;5055605;28;20036;-68
2023/06/01 08:16:01;;;;;;;4.13;1.60;;;;;;;;;;5085359;28;20035;-69
2023/06/01 08:18:27;;;;;;;4.57;2.05;;;;;;;;;;5077102;28;20059;-68
2023/06/01 08:20:52;;;;;;;5.03;1.98;;;;;;;;;;5088234;28;20012;-69
2023/06/01 08:23:18;;;;;;;4.57;1.80;;;;;;;;;;5093351;28;20020;-69
2023/06/01 08:25:44;;;;;;;3.72;1.90;;;;;;;;;;5092980;28;20382;-69
2023/06/01 08:28:10;;;;;;;4.70;2.20;;;;;;;;;;5071087;28;20458;-69
2023/06/01 08:30:35;;;;;;;4.60;1.83;;;;;;;;;;5055000;28;20017;-69
2023/06/01 08:33:02;;;;;;;4.90;2.20;;;;;;;;;;5055369;28;20025;-69
2023/06/01 08:35:27;;;;;;;4.72;2.00;;;;;;;;;;5054570;28;20516;-69
2023/06/01 08:37:53;;;;;;;4.18;1.60;;;;;;;;;;5082265;28;20020;-69
2023/06/01 08:40:18;;;;;;;3.00;1.42;;;;;;;;;;5074611;28;20048;-69
2023/06/01 08:43:03;;;;;;;3.58;1.60;;;;;;;;;;5092600;28;20101;-69
2023/06/01 08:45:28;;;;;;;2.60;1.30;;;;;;;;;;5061215;28;20028;-68
2023/06/01 08:47:54;;;;;;;3.85;1.20;;;;;;;;;;5054880;28;20016;-69
2023/06/01 08:50:20;;;;;;;4.70;1.30;;;;;;;;;;5054728;28;20053;-69
2023/06/01 08:52:46;;;;;;;5.25;1.85;;;;;;;;;;5062023;28;20044;-69
2023/06/01 08:55:13;;;;;;;4.55;2.00;;;;;;;;;;5055387;28;20427;-69
2023/06/01 08:57:40;;;;;;;4.35;2.20;;;;;;;;;;5054849;28;20045;-69
2023/06/01 09:00:08;;;;;;;4.35;2.00;;;;;;;;;;5054906;28;20040;-68
2023/06/01 09:02:33;;;;;;;4.63;1.98;;;;;;;;;;5086652;28;20012;-69
2023/06/01 09:04:59;;;;;;;6.15;2.25;;;;;;;;;;5091602;28;20047;-69
2023/06/01 09:07:25;;;;;;;5.75;2.30;;;;;;;;;;5092202;28;20042;-69
2023/06/01 09:09:50;;;;;;;4.75;1.90;;;;;;;;;;5091710;28;20031;-69
2023/06/01 09:12:29;;;;;;;5.38;2.05;;;;;;;;;;5061299;28;20039;-68
2023/06/01 09:15:25;;;;;;;4.05;1.90;;;;;;;;;;5058227;28;20032;-69
2023/06/01 09:17:51;;;;;;;6.05;1.90;;;;;;;;;;5047183;28;20037;-69
2023/06/01 09:20:26;;;;;;;4.00;1.92;;;;;;;;;;5089550;28;20024;-69
2023/06/01 09:22:52;;;;;;;3.92;1.73;;;;;;;;;;5086359;28;20062;-69
2023/06/01 09:25:22;;;;;;;10.40;2.83;;;;;;;;;;5054852;28;20502;-69
2023/06/01 09:27:51;;;;;;;4.43;1.90;;;;;;;;;;5091456;28;20106;-69
2023/06/01 09:30:18;;;;;;;6.13;2.30;;;;;;;;;;5091156;28;20028;-69
2023/06/01 09:32:44;;;;;;;9.13;2.63;;;;;;;;;;5088138;28;20044;-69
2023/06/01 09:35:09;;;;;;;5.93;2.33;;;;;;;;;;5079103;28;20418;-69
2023/06/01 09:37:36;;;;;;;7.80;2.40;;;;;;;;;;5077191;28;20028;-68
2023/06/01 09:40:03;;;;;;;6.03;2.38;;;;;;;;;;5086604;28;20498;-69
2023/06/01 09:42:32;;;;;;;5.78;2.20;;;;;;;;;;5091160;28;20065;-68
2023/06/01 09:45:13;;;;;;;5.43;2.47;;;;;;;;;;5091662;28;20027;-68
2023/06/01 09:47:39;;;;;;;4.90;2.72;;;;;;;;;;5071010;28;20375;-69
2023/06/01 09:50:05;;;;;;;5.03;2.53;;;;;;;;;;5053803;28;20017;-69
2023/06/01 09:52:30;;;;;;;5.05;2.50;;;;;;;;;;5056084;28;20483;-69
2023/06/01 09:55:04;;;;;;;8.30;2.65;;;;;;;;;;5053872;28;20028;-69
2023/06/01 09:57:29;;;;;;;5.32;2.92;;;;;;;;;;5053702;28;20376;-69
2023/06/01 09:59:54;;;;;;;7.25;2.40;;;;;;;;;;5053342;28;20021;-69
2023/06/01 10:02:24;;;;;;;5.10;2.40;;;;;;;;;;5053398;28;20439;-68
2023/06/01 10:04:50;;;;;;;6.55;2.78;;;;;;;;;;5059955;28;20486;-68
2023/06/01 10:07:16;;;;;;;4.70;2.50;;;;;;;;;;5091238;28;20493;-69
2023/06/01 10:09:42;;;;;;;5.80;2.60;;;;;;;;;;5066092;28;20021;-69
2023/06/01 10:12:08;;;;;;;6.13;2.88;;;;;;;;;;5053546;28;20390;-68
2023/06/01 10:14:35;;;;;;;4.95;2.45;;;;;;;;;;5081355;28;20024;-68
2023/06/01 10:17:01;;;;;;;6.68;2.40;;;;;;;;;;5091271;28;20027;-68
2023/06/01 10:19:26;;;;;;;4.68;2.40;;;;;;;;;;5089367;28;20024;-68
2023/06/01 10:21:52;;;;;;;6.80;2.28;;;;;;;;;;5083261;28;20176;-69
2023/06/01 10:24:18;;;;;;;5.30;2.78;;;;;;;;;;5087133;28;20820;-69
2023/06/01 10:27:10;;;;;;;6.03;2.50;;;;;;;;;;5074206;28;20102;-69
2023/06/01 10:29:35;;;;;;;;;;;;;;;;;;5082662;28;20177;-69
2023/06/01 10:32:01;;;;;;;4.50;2.67;;;;;;;;;;5091161;28;19998;-69
2023/06/01 10:34:45;;;;;;;5.60;2.50;;;;;;;;;;5090643;28;20385;-69
2023/06/01 10:37:14;;;;;;;6.43;2.60;;;;;;;;;;5073648;28;20016;-68
2023/06/01 10:39:40;;;;;;;5.70;2.72;;;;;;;;;;5056894;28;20382;-68
2023/06/01 10:42:31;;;;;;;6.47;2.72;;;;;;;;;;5053207;28;20013;-68
2023/06/01 10:44:56;;;;;;;6.13;3.05;;;;;;;;;;5051942;28;20025;-68
2023/06/01 10:47:41;;;;;;;4.88;2.60;;;;;;;;;;5058670;28;20031;-68
2023/06/01 10:50:07;;;;;;;6.25;2.72;;;;;;;;;;5059183;28;20470;-68
2023/06/01 10:52:38;;;;;;;6.25;2.78;;;;;;;;;;5052759;28;20032;-69
2023/06/01 10:55:22;;;;;;;6.35;3.00;;;;;;;;;;5057011;28;20023;-69
2023/06/01 10:57:47;;;;;;;5.97;3.13;;;;;;;;;;5056405;28;20056;-69
2023/06/01 11:00:28;;;;;;;5.22;3.00;;;;;;;;;;5065036;28;20109;-68
2023/06/01 11:03:11;;;;;;;7.07;2.83;;;;;;;;;;5060754;28;20135;-69
2023/06/01 11:05:47;;;;;;;5.40;2.95;;;;;;;;;;5063887;28;20478;-69
2023/06/01 11:08:41;;;;;;;7.40;3.45;;;;;;;;;;5091988;28;20020;-68
2023/06/01 11:11:07;;;;;;;6.25;2.97;;;;;;;;;;5072450;28;20028;-69
2023/06/01 11:13:34;;;;;;;6.65;3.20;;;;;;;;;;5059804;28;20033;-68
2023/06/01 11:16:29;;;;;;;8.07;3.60;;;;;;;;;;5086032;28;20674;-69
2023/06/01 11:19:00;;;;;;;8.07;3.30;;;;;;;;;;5075967;28;20043;-69
2023/06/01 11:21:27;;;;;;;7.50;3.45;;;;;;;;;;5087349;28;20016;-68
2023/06/01 11:23:54;;;;;;;7.05;3.70;;;;;;;;;;5069778;28;20147;-67
2023/06/01 11:26:20;;;;;;;7.57;3.40;;;;;;;;;;5070373;28;20470;-66
2023/06/01 11:28:46;;;;;;;7.90;4.00;;;;;;;;;;5073083;28;20378;-67
2023/06/01 11:31:12;;;;;;;8.68;3.83;;;;;;;;;;5078057;28;20020;-66
2023/06/01 11:33:38;;;;;;;6.95;3.60;;;;;;;;;;5084110;28;20495;-67
2023/06/01 11:55:52;;;;;;;8.63;4.50;;;;;;;;;;5122760;27;20402;-61
2023/06/01 11:58:27;;;;;;;8.38;3.90;;;;;;;;;;5101181;27;20066;-62
2023/06/01 12:00:53;;;;;;;8.30;4.07;;;;;;;;;;5106653;28;20122;-62
2023/06/01 12:03:19;;;;;;;8.93;3.70;;;;;;;;;;5108621;28;20566;-64
2023/06/01 12:05:53;;;;;;;8.68;3.92;;;;;;;;;;5112228;28;20030;-62
2023/06/01 12:08:22;;;;;;;7.53;3.85;;;;;;;;;;5106826;28;20039;-62
2023/06/01 12:10:48;;;;;;;9.15;3.70;;;;;;;;;;5106897;28;20169;-63
2023/06/01 12:13:14;;;;;;;10.15;3.53;;;;;;;;;;5111373;28;20106;-62
2023/06/01 12:15:39;;;;;;;8.68;3.83;;;;;;;;;;5121478;27;20067;-62
2023/06/01 12:18:05;;;;;;;8.85;3.85;;;;;;;;;;5121947;28;20036;-62
2023/06/01 12:20:43;;;;;;;8.98;3.92;;;;;;;;;;5119780;28;20095;-62
2023/06/01 12:23:15;;;;;;;14.40;4.10;;;;;;;;;;5111982;28;20016;-62
2023/06/01 12:25:51;;;;;;;8.13;3.72;;;;;;;;;;5116163;28;20011;-62
2023/06/01 12:28:17;;;;;;;14.85;4.38;;;;;;;;;;5120423;27;20043;-62
2023/06/01 12:30:42;;;;;;;13.60;4.32;;;;;;;;;;5120392;27;20425;-62
2023/06/01 12:33:08;;;;;;;8.45;3.97;;;;;;;;;;5121866;28;20046;-61
2023/06/01 12:35:46;;;;;;;8.38;3.78;;;;;;;;;;5119901;28;20112;-62
2023/06/01 12:38:12;;;;;;;9.05;3.58;;;;;;;;;;5124659;27;20162;-62
2023/06/01 12:40:38;;;;;;;10.68;4.55;;;;;;;;;;5116119;27;20019;-62
2023/06/01 12:43:06;;;;;;;7.50;3.65;;;;;;;;;;5112314;27;20012;-62
2023/06/01 12:45:36;;;;;;;10.40;3.40;;;;;;;;;;5115433;28;20024;-62
2023/06/01 12:48:01;;;;;;;8.98;3.17;;;;;;;;;;5108829;28;20156;-62
2023/06/01 12:50:26;;;;;;;9.80;3.58;;;;;;;;;;5109259;28;20091;-62
2023/06/01 12:52:52;;;;;;;10.60;3.30;;;;;;;;;;5109283;28;20030;-63
2023/06/01 12:55:18;;;;;;;8.60;3.17;;;;;;;;;;5099367;28;20044;-63
2023/06/01 12:57:43;;;;;;;8.52;3.00;;;;;;;;;;5095289;28;20012;-62
2023/06/01 13:00:09;;;;;;;10.98;3.03;;;;;;;;;;5094642;28;20020;-63
2023/06/01 13:02:34;;;;;;;9.25;3.15;;;;;;;;;;5094583;28;20536;-62
2023/06/01 13:04:59;;;;;;;8.05;2.88;;;;;;;;;;5095426;28;20039;-62
2023/06/01 13:07:25;;;;;;;9.32;2.78;;;;;;;;;;5095024;28;20427;-64
2023/06/01 13:09:51;;;;;;;10.68;3.08;;;;;;;;;;5095054;28;20016;-63
2023/06/01 13:12:17;;;;;;;8.93;2.67;;;;;;;;;;5094928;28;20103;-63
2023/06/01 13:14:42;;;;;;;8.32;2.70;;;;;;;;;;5092045;28;20020;-62
2023/06/01 13:17:07;;;;;;;9.55;2.80;;;;;;;;;;5093681;28;20008;-62
2023/06/01 13:19:33;;;;;;;9.07;2.88;;;;;;;;;;5095509;28;20470;-62
2023/06/01 13:21:58;;;;;;;10.65;3.33;;;;;;;;;;5094993;28;20458;-63
2023/06/01 13:24:24;;;;;;;7.10;2.67;;;;;;;;;;5095004;28;20024;-62
2023/06/01 13:26:49;;;;;;;8.50;2.75;;;;;;;;;;5094656;28;20103;-62
2023/06/01 13:29:15;;;;;;;9.43;3.50;;;;;;;;;;5094913;28;20410;-62
2023/06/01 13:31:40;;;;;;;10.18;2.90;;;;;;;;;;5094868;28;20045;-62
2023/06/01 13:34:05;;;;;;;11.82;3.38;;;;;;;;;;5092644;28;20023;-63
2023/06/01 13:36:31;;;;;;;12.23;3.10;;;;;;;;;;5094508;28;20008;-63
2023/06/01 13:38:56;;;;;;;8.88;2.90;;;;;;;;;;5094443;28;20477;-63
2023/06/01 13:41:21;;;;;;;7.15;3.10;;;;;;;;;;5094738;28;20024;-62
2023/06/01 13:43:47;;;;;;;9.30;3.20;;;;;;;;;;5094215;28;20026;-63
2023/06/01 13:46:12;;;;;;;9.10;3.20;;;;;;;;;;5090593;28;20370;-62
2023/06/01 13:48:37;;;;;;;9.43;3.03;;;;;;;;;;5094284;28;20027;-62
2023/06/01 13:51:04;;;;;;;7.30;2.90;;;;;;;;;;5100328;28;20028;-63
2023/06/01 13:53:29;;;;;;;7.07;2.88;;;;;;;;;;5107515;28;20030;-62
2023/06/01 13:55:55;;;;;;;9.70;3.10;;;;;;;;;;5110510;28;20024;-63
2023/06/01 13:58:20;;;;;;;10.40;3.38;;;;;;;;;;5091297;28;20100;-62
2023/06/01 14:00:46;;;;;;;8.38;3.33;;;;;;;;;;5094333;28;20461;-62
2023/06/01 14:03:12;;;;;;;7.53;3.30;;;;;;;;;;5094268;28;20488;-62
2023/06/01 14:05:37;;;;;;;9.90;2.75;;;;;;;;;;5105432;28;20019;-63
2023/06/01 14:08:04;;;;;;;10.05;3.58;;;;;;;;;;5096526;28;20426;-63
2023/06/01 14:10:29;;;;;;;15.23;5.10;;;;;;;;;;5094079;28;20012;-62
2023/06/01 14:12:55;;;;;;;10.07;3.10;;;;;;;;;;5093812;28;20369;-62
2023/06/01 14:15:20;;;;;;;9.48;3.55;;;;;;;;;;5092029;28;20027;-62
2023/06/01 14:17:45;;;;;;;7.57;3.35;;;;;;;;;;5094217;28;20024;-62
2023/06/01 14:20:10;;;;;;;9.48;3.47;;;;;;;;;;5094395;28;20030;-62
2023/06/01 14:22:36;;;;;;;10.05;3.10;;;;;;;;;;5093581;28;20055;-62
2023/06/01 14:25:01;;;;;;;13.07;3.85;;;;;;;;;;5094521;28;20028;-62
2023/06/01 14:27:26;;;;;;;9.70;3.47;;;;;;;;;;5094204;28;20550;-63
2023/06/01 14:29:51;;;;;;;12.15;3.55;;;;;;;;;;5094405;28;20583;-62
2023/06/01 14:32:17;;;;;;;10.63;3.50;;;;;;;;;;5094341;28;20091;-61
2023/06/01 14:34:42;;;;;;;13.30;3.63;;;;;;;;;;5094055;28;20020;-62
2023/06/01 14:37:10;;;;;;;10.68;4.15;;;;;;;;;;5094284;28;20024;-62
2023/06/01 14:39:35;;;;;;;11.20;3.75;;;;;;;;;;5094168;28;20163;-62
2023/06/01 14:42:01;;;;;;;11.75;4.47;;;;;;;;;;5094227;28;20402;-63
2023/06/01 14:44:26;;;;;;;11.80;3.55;;;;;;;;;;5093746;28;20028;-63
2023/06/01 14:46:51;;;;;;;9.70;3.40;;;;;;;;;;5081550;28;20025;-62
2023/06/01 14:49:17;;;;;;;10.80;3.72;;;;;;;;;;5073758;28;20484;-62
2023/06/01 14:51:42;;;;;;;10.25;3.55;;;;;;;;;;5073737;28;20074;-62
2023/06/01 14:54:07;;;;;;;10.05;3.60;;;;;;;;;;5073399;28;20581;-62
2023/06/01 14:56:32;;;;;;;14.93;3.30;;;;;;;;;;5078641;28;20413;-62
2023/06/01 14:58:58;;;;;;;14.20;3.50;;;;;;;;;;5076643;28;20543;-62